createdAt,value
2017-10-31T00:01:15.120Z,5.37
2017-10-31T00:03:42.575Z,5.80
2017-10-31T00:06:09.993Z,7.43
2017-10-31T00:08:37.927Z,8.60
2017-10-31T00:11:05.493Z,11.10
2017-10-31T00:13:32.932Z,10.77
2017-10-31T00:16:01.669Z,8.93
2017-10-31T00:18:29.119Z,11.10
2017-10-31T00:20:56.558Z,6.63
2017-10-31T00:23:24.013Z,9.03
2017-10-31T00:25:51.450Z,6.60
2017-10-31T00:28:18.887Z,7.53
2017-10-31T00:30:46.348Z,8.20
2017-10-31T00:33:13.793Z,8.43
2017-10-31T00:35:41.230Z,10.23
2017-10-31T00:38:08.700Z,6.23
2017-10-31T00:40:36.166Z,10.37
2017-10-31T00:43:03.619Z,5.73
2017-10-31T00:45:31.059Z,5.97
2017-10-31T00:47:58.491Z,6.67
2017-10-31T00:50:26.326Z,8.70
2017-10-31T00:52:53.806Z,5.90
2017-10-31T00:55:21.228Z,8.03
2017-10-31T00:57:48.657Z,9.20
2017-10-31T01:00:16.130Z,7.07
2017-10-31T01:02:43.632Z,5.20
2017-10-31T01:05:11.057Z,9.03
2017-10-31T01:07:39.358Z,8.60
2017-10-31T01:10:06.808Z,6.33
2017-10-31T01:12:34.237Z,7.40
2017-10-31T01:15:02.095Z,8.40
2017-10-31T01:17:29.619Z,10.10
2017-10-31T01:19:57.073Z,12.17
2017-10-31T01:22:25.369Z,7.53
2017-10-31T01:24:52.808Z,11.00
2017-10-31T01:27:20.248Z,9.20
2017-10-31T01:29:48.568Z,11.00
2017-10-31T01:32:16.029Z,10.73
2017-10-31T01:34:43.481Z,13.20
2017-10-31T01:37:11.656Z,7.47
2017-10-31T01:39:39.093Z,14.53
2017-10-31T01:42:06.584Z,6.57
2017-10-31T01:44:34.027Z,5.73
2017-10-31T01:47:01.495Z,11.20
2017-10-31T01:49:28.965Z,10.60
2017-10-31T01:51:56.404Z,7.37
2017-10-31T01:54:23.828Z,8.13
2017-10-31T01:56:51.252Z,14.57
2017-10-31T01:59:18.700Z,8.23
2017-10-31T02:01:46.138Z,11.37
2017-10-31T02:04:14.056Z,6.03
2017-10-31T02:06:41.489Z,8.97
2017-10-31T02:09:08.915Z,5.13
2017-10-31T02:11:36.839Z,7.20
2017-10-31T02:14:04.303Z,12.40
2017-10-31T02:16:31.830Z,5.97
2017-10-31T02:18:59.645Z,7.13
2017-10-31T02:21:27.077Z,8.77
2017-10-31T02:23:54.564Z,12.27
2017-10-31T02:26:22.010Z,6.93
2017-10-31T02:28:49.689Z,8.43
2017-10-31T02:31:17.130Z,7.23
2017-10-31T02:33:44.559Z,7.63
2017-10-31T02:36:12.474Z,12.30
2017-10-31T02:38:51.822Z,9.60
2017-10-31T02:41:19.888Z,7.50
2017-10-31T02:43:47.350Z,15.70
2017-10-31T02:46:14.799Z,8.57
2017-10-31T02:48:42.250Z,7.97
2017-10-31T02:51:09.719Z,10.40
2017-10-31T02:53:37.197Z,8.40
2017-10-31T02:56:04.668Z,9.13
2017-10-31T02:58:32.089Z,8.30
2017-10-31T03:01:00.820Z,8.13
2017-10-31T03:03:28.272Z,8.80
2017-10-31T03:05:55.748Z,6.67
2017-10-31T03:08:23.190Z,8.13
2017-10-31T03:10:51.877Z,8.83
2017-10-31T03:13:19.338Z,8.60
2017-10-31T03:15:46.770Z,11.67
2017-10-31T03:18:14.591Z,5.57
2017-10-31T03:20:42.058Z,10.23
2017-10-31T03:23:09.505Z,10.10
2017-10-31T03:25:36.956Z,10.20
2017-10-31T03:28:04.412Z,8.30
2017-10-31T03:30:31.838Z,7.53
2017-10-31T03:33:00.758Z,12.57
2017-10-31T03:35:28.240Z,12.53
2017-10-31T03:37:55.673Z,6.90
2017-10-31T03:40:23.888Z,6.70
2017-10-31T03:42:51.324Z,10.93
2017-10-31T03:45:18.752Z,8.57
2017-10-31T03:47:46.780Z,9.30
2017-10-31T03:50:14.637Z,8.50
2017-10-31T03:52:42.112Z,11.23
2017-10-31T03:55:09.568Z,7.67
2017-10-31T03:57:37.043Z,9.63
2017-10-31T04:00:04.445Z,7.37
2017-10-31T04:02:32.357Z,8.03
2017-10-31T04:04:59.792Z,9.20
2017-10-31T04:07:28.100Z,9.10
2017-10-31T04:09:55.565Z,10.07
2017-10-31T04:12:23.037Z,10.93
2017-10-31T04:14:50.500Z,14.00
2017-10-31T04:17:17.939Z,8.80
2017-10-31T04:19:45.361Z,7.33
2017-10-31T04:22:12.795Z,14.77
2017-10-31T04:24:40.235Z,8.20
2017-10-31T04:27:07.659Z,7.63
2017-10-31T04:29:35.486Z,8.93
2017-10-31T04:32:02.930Z,8.10
2017-10-31T04:34:30.413Z,9.53
2017-10-31T04:36:57.860Z,7.87
2017-10-31T04:39:25.542Z,9.63
2017-10-31T04:41:52.974Z,9.30
2017-10-31T04:44:20.400Z,8.00
2017-10-31T04:46:48.232Z,8.40
2017-10-31T04:49:15.654Z,12.87
2017-10-31T04:51:43.079Z,9.13
2017-10-31T04:54:10.536Z,10.93
2017-10-31T04:56:38.025Z,7.97
2017-10-31T04:59:06.014Z,11.47
2017-10-31T05:01:33.655Z,8.83
2017-10-31T05:04:01.172Z,9.30
2017-10-31T05:06:28.636Z,6.80
2017-10-31T05:08:56.217Z,8.60
2017-10-31T05:11:23.760Z,7.40
2017-10-31T05:13:51.243Z,7.73
2017-10-31T05:16:18.838Z,10.20
2017-10-31T05:18:46.684Z,13.73
2017-10-31T05:21:14.147Z,9.33
2017-10-31T05:23:41.687Z,15.83
2017-10-31T05:26:09.173Z,9.40
2017-10-31T05:28:36.630Z,15.13
2017-10-31T05:31:04.097Z,12.33
2017-10-31T05:33:32.158Z,9.27
2017-10-31T05:35:59.737Z,8.30
2017-10-31T05:38:27.158Z,10.00
2017-10-31T05:40:54.642Z,9.00
2017-10-31T05:43:22.136Z,10.40
2017-10-31T05:45:49.689Z,8.00
2017-10-31T05:48:17.180Z,10.53
2017-10-31T05:50:44.834Z,7.90
2017-10-31T05:53:12.777Z,7.53
2017-10-31T05:55:40.228Z,10.17
2017-10-31T05:58:07.700Z,10.53
2017-10-31T06:00:35.145Z,10.40
2017-10-31T06:03:02.623Z,10.63
2017-10-31T06:05:30.098Z,14.03
2017-10-31T06:07:57.668Z,9.40
2017-10-31T06:10:25.209Z,8.37
2017-10-31T06:12:52.662Z,11.40
2017-10-31T06:15:22.185Z,11.90
2017-10-31T06:17:49.775Z,13.80
2017-10-31T06:20:17.697Z,12.60
2017-10-31T06:22:50.879Z,8.93
2017-10-31T06:25:24.300Z,10.60
2017-10-31T06:28:09.623Z,8.77
2017-10-31T06:30:42.732Z,8.57
2017-10-31T06:33:10.316Z,8.40
2017-10-31T06:35:37.787Z,7.53
2017-10-31T06:38:05.240Z,8.30
2017-10-31T06:40:32.716Z,13.60
2017-10-31T06:43:00.264Z,12.47
2017-10-31T06:45:27.746Z,9.67
2017-10-31T06:47:55.674Z,16.53
2017-10-31T06:50:23.174Z,12.57
2017-10-31T06:52:50.692Z,20.13
2017-10-31T06:55:18.160Z,7.70
2017-10-31T06:57:45.633Z,10.70
2017-10-31T07:00:13.191Z,13.00
2017-10-31T07:02:40.684Z,11.67
2017-10-31T07:05:08.169Z,10.70
2017-10-31T07:07:35.682Z,7.77
2017-10-31T07:10:04.710Z,11.40
2017-10-31T07:12:32.275Z,11.23
2017-10-31T07:14:59.742Z,9.13
2017-10-31T07:17:27.201Z,12.83
2017-10-31T07:19:54.683Z,13.07
2017-10-31T07:22:22.143Z,14.33
2017-10-31T07:24:49.616Z,9.40
2017-10-31T07:27:17.146Z,10.47
2017-10-31T07:29:44.919Z,10.67
2017-10-31T07:32:12.367Z,12.57
2017-10-31T07:34:39.950Z,17.60
2017-10-31T07:37:07.522Z,12.20
2017-10-31T07:39:34.971Z,17.00
2017-10-31T07:42:02.484Z,14.40
2017-10-31T07:44:29.959Z,15.97
2017-10-31T07:46:57.373Z,10.53
2017-10-31T07:49:24.864Z,11.00
2017-10-31T07:51:53.291Z,10.40
2017-10-31T07:54:20.771Z,13.10
2017-10-31T07:56:48.269Z,12.10
2017-10-31T07:59:16.158Z,16.20
2017-10-31T08:01:44.114Z,18.07
2017-10-31T08:04:11.984Z,12.97
2017-10-31T08:06:39.914Z,15.10
2017-10-31T08:09:07.422Z,17.67
2017-10-31T08:11:35.363Z,15.83
2017-10-31T08:14:03.074Z,15.07
2017-10-31T08:16:30.985Z,14.10
2017-10-31T08:18:58.516Z,17.77
2017-10-31T08:21:26.031Z,17.30
2017-10-31T08:23:53.482Z,12.63
2017-10-31T08:26:21.152Z,11.97
2017-10-31T08:28:48.706Z,15.37
2017-10-31T08:31:16.179Z,13.77
2017-10-31T08:33:43.701Z,17.47
2017-10-31T08:36:11.195Z,13.20
2017-10-31T08:38:38.663Z,22.00
2017-10-31T08:41:06.157Z,18.47
2017-10-31T08:43:34.007Z,29.00
2017-10-31T08:46:01.458Z,12.87
2017-10-31T08:48:28.975Z,14.43
2017-10-31T08:50:56.430Z,17.87
2017-10-31T08:53:24.299Z,19.77
2017-10-31T08:55:51.814Z,13.50
2017-10-31T08:58:19.303Z,17.40
2017-10-31T09:00:47.188Z,11.87
2017-10-31T09:03:15.086Z,17.60
2017-10-31T09:05:42.581Z,9.40
2017-10-31T09:08:10.034Z,12.50
2017-10-31T09:10:37.646Z,12.90
2017-10-31T09:13:05.517Z,23.33
2017-10-31T09:15:33.449Z,12.57
2017-10-31T09:18:00.903Z,13.73
2017-10-31T09:20:28.581Z,14.07
2017-10-31T09:22:56.071Z,19.70
2017-10-31T09:25:23.943Z,10.03
2017-10-31T09:27:52.273Z,13.93
2017-10-31T09:30:19.714Z,15.40
2017-10-31T09:32:47.129Z,12.53
2017-10-31T09:35:14.612Z,14.40
2017-10-31T09:37:42.526Z,15.77
2017-10-31T09:40:11.521Z,12.70
2017-10-31T09:42:38.944Z,10.13
2017-10-31T09:45:06.789Z,11.10
2017-10-31T09:47:34.272Z,15.70
2017-10-31T09:50:02.080Z,12.87
2017-10-31T09:52:29.842Z,16.93
2017-10-31T09:54:57.307Z,15.03
2017-10-31T09:57:24.973Z,16.80
2017-10-31T09:59:52.601Z,14.70
2017-10-31T10:02:20.505Z,19.40
2017-10-31T10:04:48.188Z,26.33
2017-10-31T10:07:15.720Z,19.77
2017-10-31T10:09:44.847Z,19.47
2017-10-31T10:12:12.271Z,15.70
2017-10-31T10:14:39.731Z,13.90
2017-10-31T10:17:07.403Z,13.63
2017-10-31T10:19:35.955Z,19.47
2017-10-31T10:22:03.534Z,18.10
2017-10-31T10:24:31.471Z,16.57
2017-10-31T10:26:58.901Z,15.07
2017-10-31T10:29:27.003Z,15.27
2017-10-31T10:31:54.585Z,17.50
2017-10-31T10:34:23.660Z,19.27
2017-10-31T10:36:51.329Z,22.57
2017-10-31T10:39:18.889Z,21.57
2017-10-31T10:41:46.426Z,17.80
2017-10-31T10:44:14.405Z,18.03
2017-10-31T10:46:42.153Z,19.53
2017-10-31T10:49:10.670Z,17.37
2017-10-31T10:51:38.385Z,19.03
2017-10-31T10:54:05.949Z,12.73
2017-10-31T10:56:33.516Z,19.20
2017-10-31T10:59:00.981Z,16.83
2017-10-31T11:01:28.463Z,17.40
2017-10-31T11:03:55.912Z,15.63
2017-10-31T11:06:23.797Z,15.20
2017-10-31T11:08:51.766Z,10.23
2017-10-31T11:11:20.329Z,16.50
2017-10-31T11:13:47.964Z,11.90
2017-10-31T11:16:16.673Z,13.03
2017-10-31T11:18:44.155Z,13.47
2017-10-31T11:21:11.986Z,16.90
2017-10-31T11:23:39.726Z,14.37
2017-10-31T11:26:07.702Z,10.53
2017-10-31T11:28:35.236Z,12.57
2017-10-31T11:31:03.207Z,14.80
2017-10-31T11:33:30.662Z,8.00
2017-10-31T11:35:58.326Z,12.70
2017-10-31T11:38:25.893Z,8.30
2017-10-31T11:40:53.483Z,8.90
2017-10-31T11:43:21.726Z,5.27
2017-10-31T11:45:49.252Z,5.03
2017-10-31T11:48:16.968Z,6.03
2017-10-31T11:50:44.701Z,4.93
2017-10-31T11:53:12.357Z,6.60
2017-10-31T11:55:40.126Z,5.60
2017-10-31T11:58:08.108Z,3.73
2017-10-31T12:00:35.608Z,3.60
2017-10-31T12:03:03.052Z,6.60
2017-10-31T12:05:30.602Z,3.90
2017-10-31T12:07:58.094Z,3.97
2017-10-31T12:10:25.565Z,6.67
2017-10-31T12:12:53.087Z,7.70
2017-10-31T12:15:20.613Z,3.70
2017-10-31T12:17:48.533Z,6.83
2017-10-31T12:20:16.040Z,7.47
2017-10-31T12:22:43.482Z,5.87
2017-10-31T12:25:11.059Z,6.37
2017-10-31T12:27:38.933Z,7.10
2017-10-31T12:30:06.468Z,7.47
2017-10-31T12:32:33.999Z,6.53
2017-10-31T12:35:01.445Z,4.37
2017-10-31T12:37:29.409Z,5.70
2017-10-31T12:39:57.324Z,4.37
2017-10-31T12:42:24.819Z,2.77
2017-10-31T12:44:52.389Z,7.23
2017-10-31T12:47:19.942Z,6.33
2017-10-31T12:49:47.429Z,6.00
2017-10-31T12:52:15.319Z,4.87
2017-10-31T12:54:42.882Z,5.07
2017-10-31T12:57:10.766Z,6.00
2017-10-31T12:59:38.284Z,6.90
2017-10-31T13:02:05.731Z,5.10
2017-10-31T13:04:33.299Z,5.40
2017-10-31T13:07:00.768Z,4.87
2017-10-31T13:09:28.236Z,6.63
2017-10-31T13:11:56.290Z,3.83
2017-10-31T13:14:23.756Z,3.17
2017-10-31T13:16:51.223Z,5.87
2017-10-31T13:19:18.722Z,4.80
2017-10-31T13:21:46.191Z,4.60
2017-10-31T13:24:14.085Z,4.17
2017-10-31T13:26:42.364Z,3.13
2017-10-31T13:29:11.310Z,4.73
2017-10-31T13:31:39.864Z,2.50
2017-10-31T13:34:08.217Z,1.97
2017-10-31T13:36:36.473Z,2.90
2017-10-31T13:39:04.914Z,2.83
2017-10-31T13:41:33.030Z,3.87
2017-10-31T13:44:01.519Z,2.70
2017-10-31T13:46:29.420Z,6.97
2017-10-31T13:48:58.173Z,4.43
2017-10-31T13:51:26.667Z,2.77
2017-10-31T13:53:55.636Z,3.00
2017-10-31T13:56:23.436Z,4.13
2017-10-31T13:58:51.691Z,5.20
2017-10-31T14:01:19.227Z,3.60
2017-10-31T14:03:47.465Z,8.27
2017-10-31T14:06:16.548Z,2.70
2017-10-31T14:08:45.422Z,4.00
2017-10-31T14:11:14.305Z,5.27
2017-10-31T14:13:41.842Z,3.07
2017-10-31T14:16:09.332Z,3.27
2017-10-31T14:18:36.807Z,4.20
2017-10-31T14:21:05.151Z,3.03
2017-10-31T14:23:32.605Z,5.33
2017-10-31T14:26:00.086Z,2.80
2017-10-31T14:28:27.568Z,2.80
2017-10-31T14:30:55.041Z,2.90
2017-10-31T14:33:22.702Z,4.23
2017-10-31T14:35:51.705Z,4.60
2017-10-31T14:38:20.661Z,3.17
2017-10-31T14:40:48.273Z,2.60
2017-10-31T14:43:15.998Z,5.13
2017-10-31T14:45:44.018Z,6.70
2017-10-31T14:48:12.443Z,4.10
2017-10-31T14:50:40.007Z,3.13
2017-10-31T14:53:08.295Z,5.70
2017-10-31T14:55:37.772Z,2.53
2017-10-31T14:58:05.586Z,3.87
2017-10-31T15:00:33.653Z,5.00
2017-10-31T15:03:01.409Z,2.93
2017-10-31T15:05:29.274Z,6.33
2017-10-31T15:07:56.957Z,3.43
2017-10-31T15:10:24.550Z,5.23
2017-10-31T15:12:52.100Z,5.10
2017-10-31T15:15:20.387Z,2.73
2017-10-31T15:17:48.441Z,3.30
2017-10-31T15:20:16.154Z,2.90
2017-10-31T15:22:43.704Z,4.23
2017-10-31T15:25:11.322Z,3.03
2017-10-31T15:27:39.027Z,5.00
2017-10-31T15:30:06.756Z,4.93
2017-10-31T15:32:34.410Z,3.10
2017-10-31T15:35:02.138Z,3.23
2017-10-31T15:37:29.754Z,3.27
2017-10-31T15:39:59.091Z,5.50
2017-10-31T15:42:26.702Z,6.97
2017-10-31T15:44:54.405Z,5.87
2017-10-31T15:47:21.980Z,7.03
2017-10-31T15:49:49.580Z,7.17
2017-10-31T15:52:18.244Z,5.07
2017-10-31T15:54:46.547Z,4.67
2017-10-31T15:57:14.299Z,3.63
2017-10-31T15:59:42.040Z,5.03
2017-10-31T16:02:09.498Z,4.28
2017-10-31T16:04:37.177Z,8.87
2017-10-31T16:07:04.711Z,6.50
2017-10-31T16:09:32.912Z,4.67
2017-10-31T16:12:00.674Z,4.90
2017-10-31T16:14:28.119Z,3.53
2017-10-31T16:16:55.603Z,4.23
2017-10-31T16:19:23.163Z,4.60
2017-10-31T16:21:50.617Z,5.80
2017-10-31T16:24:18.374Z,6.80
2017-10-31T16:26:46.207Z,4.40
2017-10-31T16:29:13.735Z,5.97
2017-10-31T16:31:41.250Z,4.00
2017-10-31T16:34:09.098Z,9.03
2017-10-31T16:36:36.525Z,6.97
2017-10-31T16:39:04.050Z,4.30
2017-10-31T16:41:31.928Z,3.17
2017-10-31T16:43:59.839Z,4.07
2017-10-31T16:46:27.305Z,4.87
2017-10-31T16:48:56.104Z,3.93
2017-10-31T16:51:23.559Z,5.20
2017-10-31T16:53:51.004Z,8.60
2017-10-31T16:56:18.420Z,5.07
2017-10-31T16:58:46.156Z,6.80
2017-10-31T17:01:13.612Z,6.77
2017-10-31T17:03:41.113Z,9.20
2017-10-31T17:06:08.644Z,5.47
2017-10-31T17:08:36.139Z,7.13
2017-10-31T17:11:03.612Z,8.53
2017-10-31T17:13:31.480Z,10.60
2017-10-31T17:15:59.415Z,9.90
2017-10-31T17:18:26.884Z,9.60
2017-10-31T17:20:54.324Z,9.40
2017-10-31T17:23:21.785Z,9.30
2017-10-31T17:25:49.243Z,7.90
2017-10-31T17:28:16.802Z,10.90
2017-10-31T17:30:44.325Z,9.70
2017-10-31T17:33:11.847Z,9.20
2017-10-31T17:35:39.259Z,9.20
2017-10-31T17:38:07.118Z,9.93
2017-10-31T17:40:34.715Z,10.00
2017-10-31T17:43:02.132Z,9.53
2017-10-31T17:45:29.651Z,8.73
2017-10-31T17:47:57.105Z,7.97
2017-10-31T17:50:24.540Z,8.80
2017-10-31T17:52:52.356Z,12.00
2017-10-31T17:55:19.836Z,12.73
2017-10-31T17:57:47.292Z,9.47
2017-10-31T18:00:14.844Z,10.13
2017-10-31T18:02:42.292Z,7.93
2017-10-31T18:05:09.718Z,11.10
2017-10-31T18:07:37.699Z,11.40
2017-10-31T18:10:05.583Z,10.47
2017-10-31T18:12:33.100Z,11.47
2017-10-31T18:15:00.553Z,11.07
2017-10-31T18:17:28.023Z,8.63
2017-10-31T18:19:55.468Z,13.90
2017-10-31T18:22:22.912Z,12.50
2017-10-31T18:24:50.375Z,7.20
2017-10-31T18:27:17.810Z,8.73
2017-10-31T18:29:45.704Z,6.77
2017-10-31T18:32:13.173Z,7.60
2017-10-31T18:34:40.604Z,8.23
2017-10-31T18:37:08.557Z,10.30
2017-10-31T18:39:36.003Z,8.20
2017-10-31T18:42:03.442Z,8.03
2017-10-31T18:44:30.944Z,10.43
2017-10-31T18:46:58.382Z,7.63
2017-10-31T18:49:25.855Z,7.60
2017-10-31T18:51:53.303Z,5.60
2017-10-31T18:54:20.735Z,8.67
2017-10-31T18:56:48.170Z,11.60
2017-10-31T18:59:16.054Z,9.47
2017-10-31T19:01:43.460Z,6.73
2017-10-31T19:04:10.896Z,5.43
2017-10-31T19:06:38.452Z,7.90
2017-10-31T19:09:05.935Z,19.93
2017-10-31T19:11:33.449Z,10.97
2017-10-31T19:14:01.360Z,9.30
2017-10-31T19:16:28.824Z,11.80
2017-10-31T19:18:56.602Z,12.97
2017-10-31T19:21:24.042Z,6.70
2017-10-31T19:23:51.564Z,8.50
2017-10-31T19:26:19.173Z,12.17
2017-10-31T19:28:46.608Z,8.93
2017-10-31T19:31:14.154Z,19.07
2017-10-31T19:33:41.804Z,15.87
2017-10-31T19:36:09.309Z,12.23
2017-10-31T19:38:36.795Z,8.27
2017-10-31T19:41:04.362Z,7.53
2017-10-31T19:43:31.791Z,8.33
2017-10-31T19:45:59.297Z,8.07
2017-10-31T19:48:26.748Z,7.83
2017-10-31T19:50:54.175Z,19.30
2017-10-31T19:53:22.017Z,14.00
2017-10-31T19:55:49.964Z,10.10
2017-10-31T19:58:17.570Z,7.60
2017-10-31T20:00:45.014Z,10.97
2017-10-31T20:03:12.499Z,10.57
2017-10-31T20:05:40.368Z,11.43
2017-10-31T20:08:07.861Z,8.40
2017-10-31T20:10:35.455Z,10.10
2017-10-31T20:13:02.918Z,9.17
2017-10-31T20:15:30.533Z,7.27
2017-10-31T20:17:58.028Z,12.50
2017-10-31T20:20:25.599Z,9.20
2017-10-31T20:22:53.110Z,18.17
2017-10-31T20:25:20.628Z,12.77
2017-10-31T20:27:48.080Z,12.17
2017-10-31T20:30:15.773Z,11.87
2017-10-31T20:32:44.352Z,10.63
2017-10-31T20:35:12.001Z,9.80
2017-10-31T20:37:39.432Z,9.03
2017-10-31T20:40:08.428Z,12.87
2017-10-31T20:42:36.592Z,10.87
2017-10-31T20:45:04.191Z,7.77
2017-10-31T20:47:31.616Z,9.83
2017-10-31T20:49:59.728Z,10.47
2017-10-31T20:52:27.266Z,9.13
2017-10-31T20:54:55.188Z,9.80
2017-10-31T20:57:22.684Z,7.80
2017-10-31T20:59:51.249Z,6.97
2017-10-31T21:02:18.785Z,9.40
2017-10-31T21:04:47.302Z,8.73
2017-10-31T21:07:14.935Z,6.67
2017-10-31T21:09:42.634Z,10.47
2017-10-31T21:12:10.246Z,7.50
2017-10-31T21:14:38.148Z,9.30
2017-10-31T21:17:05.590Z,7.77
2017-10-31T21:19:33.188Z,10.40
2017-10-31T21:22:00.777Z,7.90
2017-10-31T21:24:28.679Z,10.13
2017-10-31T21:26:56.561Z,9.93
2017-10-31T21:29:24.023Z,5.63
2017-10-31T21:31:51.496Z,14.83
2017-10-31T21:34:18.980Z,6.50
2017-10-31T21:36:46.514Z,8.60
2017-10-31T21:39:14.025Z,7.20
2017-10-31T21:41:41.625Z,7.93
2017-10-31T21:44:09.121Z,12.40
2017-10-31T21:46:36.572Z,7.37
2017-10-31T21:49:04.004Z,10.87
2017-10-31T21:51:31.973Z,11.00
2017-10-31T21:53:59.471Z,12.17
2017-10-31T21:56:26.920Z,15.17
2017-10-31T21:58:54.518Z,8.47
2017-10-31T22:01:22.164Z,9.17
2017-10-31T22:03:51.485Z,7.93
2017-10-31T22:06:19.130Z,9.23
2017-10-31T22:08:46.690Z,8.53
2017-10-31T22:11:14.215Z,8.23
2017-10-31T22:13:41.927Z,7.47
2017-10-31T22:16:09.605Z,8.43
2017-10-31T22:18:37.133Z,9.03
2017-10-31T22:21:05.100Z,6.23
2017-10-31T22:23:33.050Z,7.17
2017-10-31T22:26:00.518Z,8.33
2017-10-31T22:28:27.987Z,11.23
2017-10-31T22:30:55.663Z,12.20
2017-10-31T22:33:23.681Z,12.47
2017-10-31T22:35:51.088Z,10.67
2017-10-31T22:38:19.000Z,9.97
2017-10-31T22:40:46.599Z,11.73
2017-10-31T22:43:14.218Z,11.17
2017-10-31T22:45:42.229Z,8.57
2017-10-31T22:48:09.862Z,9.47
2017-10-31T22:50:37.497Z,9.17
2017-10-31T22:53:05.736Z,8.17
2017-10-31T22:55:33.294Z,7.93
2017-10-31T22:58:01.916Z,8.03
2017-10-31T23:00:29.598Z,9.47
2017-10-31T23:02:57.193Z,11.43
2017-10-31T23:05:24.762Z,11.90
2017-10-31T23:07:52.292Z,14.13
2017-10-31T23:10:19.816Z,9.80
2017-10-31T23:12:47.401Z,9.83
2017-10-31T23:15:14.891Z,6.53
2017-10-31T23:17:42.830Z,9.70
2017-10-31T23:20:10.404Z,9.13
2017-10-31T23:22:37.900Z,10.13
2017-10-31T23:25:05.401Z,9.13
2017-10-31T23:27:35.137Z,8.57
2017-10-31T23:30:03.634Z,6.40
2017-10-31T23:32:31.735Z,8.50
2017-10-31T23:34:59.439Z,6.47
2017-10-31T23:37:27.099Z,8.50
2017-10-31T23:39:54.751Z,9.70
2017-10-31T23:42:22.718Z,10.17
2017-10-31T23:44:50.287Z,8.27
2017-10-31T23:47:18.177Z,10.83
2017-10-31T23:49:45.800Z,7.13
2017-10-31T23:52:13.684Z,7.10
2017-10-31T23:54:41.577Z,7.87
2017-10-31T23:57:09.103Z,10.63
2017-10-31T23:59:36.667Z,6.00
